Terminal Aerodrome Forecast
Issued by NWS Wilmington, OH

Current Version | Previous Version | Text Only | Print | Product List | Glossary Off
Versions: 1 2 3 4 5 6 7 8 9 10 11 12 13 14 15 16 17 18 19

212
FTUS41 KILN 050440 AAB
TAFDAY
TAF AMD
KDAY 050440Z 0505/0524 27012G18KT P6SM OVC012
      TEMPO 0505/0508 SCT004 OVC008
     FM051400 21004KT P6SM BKN012
     FM051800 12006KT P6SM SCT015 BKN200
     FM052300 VRB04KT P6SM BKN250=

USA.gov is the U.S. government's official web portal to all federal, state and local government web resources and services.